Time;durP1;ratioP1;P1;durP2;ratioP2;P2;SDS_P1;SDS_P2;PMS_P1;PMS_P2;Temp;Humidity;BMP_temperature;BMP_pressure;BME280_temperature;BME280_humidity;BME280_pressure;Samples;Min_cycle;Max_cycle;Signal;HPM_P1;HPM_P2
2022/01/16 00:00:22;;;;;;;198.20;81.68;;;;;;;-3.56;100.00;99972.81;2107623;28;20205;-76
2022/01/16 00:01:43;;;;;;;210.40;84.22;;;;;;;-3.63;100.00;99972.75;2108230;28;20279;-76
2022/01/16 00:04:06;;;;;;;201.65;82.22;;;;;;;-3.71;100.00;99978.88;2108113;28;20202;-76
2022/01/16 00:05:11;;;;;;;198.73;84.32;;;;;;;-3.75;100.00;99993.25;2107198;28;20588;-76
2022/01/16 00:06:17;;;;;;;204.07;82.53;;;;;;;-3.75;100.00;99984.63;2106894;28;20225;-76
2022/01/16 00:07:21;;;;;;;219.35;86.82;;;;;;;-3.78;100.00;99979.78;2107448;28;20647;-76
2022/01/16 00:08:22;;;;;;;213.23;84.38;;;;;;;-3.75;100.00;99984.63;2107504;28;20205;-76
2022/01/16 00:09:23;;;;;;;200.50;87.90;;;;;;;-3.75;100.00;99982.00;2108032;28;20224;-76
2022/01/16 00:10:26;;;;;;;218.70;86.57;;;;;;;-3.72;100.00;99985.09;2107272;28;20204;-76
2022/01/16 00:11:28;;;;;;;218.93;83.63;;;;;;;-3.71;100.00;99983.28;2098841;28;20202;-76
2022/01/16 00:12:32;;;;;;;202.65;85.90;;;;;;;-3.68;100.00;99988.13;2107235;28;20232;-76
2022/01/16 00:13:34;;;;;;;221.32;91.20;;;;;;;-3.68;100.00;99982.91;2099319;28;20226;-75
2022/01/16 00:14:36;;;;;;;227.40;88.90;;;;;;;-3.66;100.00;99983.53;2107365;28;20185;-76
2022/01/16 00:15:37;;;;;;;213.88;85.50;;;;;;;-3.63;100.00;99998.84;2107966;28;20189;-76
2022/01/16 00:16:39;;;;;;;213.67;86.53;;;;;;;-3.65;100.00;99990.34;2106978;28;20201;-76
2022/01/16 00:17:53;;;;;;;213.30;88.35;;;;;;;-3.62;100.00;99978.78;2107586;28;20716;-75
2022/01/16 00:18:57;;;;;;;238.10;89.10;;;;;;;-3.59;100.00;99971.38;2107238;28;20205;-75
2022/01/16 00:20:01;;;;;;;228.73;90.25;;;;;;;-3.55;100.00;99971.84;2107471;28;20580;-74
2022/01/16 00:21:03;;;;;;;218.73;87.28;;;;;;;-3.53;100.00;99968.06;2106601;28;20634;-75
2022/01/16 00:22:12;;;;;;;222.17;89.97;;;;;;;-3.54;100.00;99948.19;2098792;28;20206;-75
2022/01/16 00:23:13;;;;;;;220.02;87.65;;;;;;;-3.51;100.00;99950.44;2107580;28;20419;-75
2022/01/16 00:24:15;;;;;;;232.23;93.57;;;;;;;-3.50;100.00;99944.22;2107207;28;20225;-75
2022/01/16 00:25:16;;;;;;;218.80;89.70;;;;;;;-3.47;100.00;99946.47;2107327;28;20672;-76
2022/01/16 00:26:21;;;;;;;234.27;89.33;;;;;;;-3.44;100.00;99953.94;2107242;28;20610;-76
2022/01/16 00:27:25;;;;;;;221.70;89.30;;;;;;;-3.43;100.00;99958.16;2107361;28;20584;-76
2022/01/16 00:28:26;;;;;;;216.60;87.03;;;;;;;-3.44;100.00;99966.97;2107971;28;20193;-76
2022/01/16 00:29:31;;;;;;;218.10;89.17;;;;;;;-3.44;100.00;99969.56;2107255;28;20279;-76
2022/01/16 00:30:31;;;;;;;211.65;90.70;;;;;;;-3.44;100.00;99972.19;2099281;28;20522;-76
2022/01/16 00:31:33;;;;;;;225.20;92.07;;;;;;;-3.43;100.00;99971.19;2098815;28;20209;-76
2022/01/16 00:32:34;;;;;;;251.70;92.65;;;;;;;-3.42;100.00;99969.38;2107517;28;20204;-76
2022/01/16 00:33:39;;;;;;;223.13;90.73;;;;;;;-3.44;100.00;99980.00;2108023;28;20186;-76
2022/01/16 00:34:40;;;;;;;230.43;92.85;;;;;;;-3.43;100.00;99978.22;2107874;28;20197;-76
2022/01/16 00:35:42;;;;;;;245.68;94.10;;;;;;;-3.45;100.00;99975.78;2107142;28;20200;-76
2022/01/16 00:36:42;;;;;;;229.25;93.55;;;;;;;-3.47;100.00;99972.56;2106930;28;20234;-76
2022/01/16 00:37:47;;;;;;;217.77;91.50;;;;;;;-3.45;100.00;99975.78;2107803;28;20189;-76
2022/01/16 00:38:48;;;;;;;233.75;91.13;;;;;;;-3.46;100.00;99963.75;2107125;28;20297;-76
2022/01/16 00:39:50;;;;;;;226.27;90.93;;;;;;;-3.46;100.00;99937.66;2098904;28;20288;-76
2022/01/16 00:40:53;;;;;;;222.75;88.93;;;;;;;-3.43;100.00;99924.25;2099266;28;20202;-76
2022/01/16 00:41:57;;;;;;;239.38;92.43;;;;;;;-3.40;100.00;99910.00;2107230;28;20609;-76
2022/01/16 00:42:58;;;;;;;221.18;91.78;;;;;;;-3.39;100.00;99922.06;2107813;28;20189;-76
2022/01/16 00:44:00;;;;;;;215.80;90.23;;;;;;;-3.38;100.00;99935.94;2107084;28;20197;-76
2022/01/16 00:45:02;;;;;;;228.77;91.07;;;;;;;-3.38;100.00;99943.75;2098618;28;20455;-73
2022/01/16 00:46:03;;;;;;;225.50;90.55;;;;;;;-3.34;100.00;99953.63;2107038;28;20220;-73
2022/01/16 00:47:07;;;;;;;238.33;92.97;;;;;;;-3.29;100.00;99963.53;2107742;28;20213;-76
2022/01/16 00:48:11;;;;;;;225.70;92.57;;;;;;;-3.29;100.00;99966.94;2107888;28;20651;-76
2022/01/16 00:49:15;;;;;;;238.20;93.78;;;;;;;-3.27;100.00;99964.16;2107324;28;20209;-76
2022/01/16 00:50:16;;;;;;;228.05;92.93;;;;;;;-3.28;100.00;99971.19;2107129;28;20219;-76
2022/01/16 00:51:18;;;;;;;236.13;93.50;;;;;;;-3.26;100.00;99973.59;2106437;28;20300;-76
2022/01/16 00:52:19;;;;;;;224.38;91.68;;;;;;;-3.29;100.00;99972.16;2107136;28;20640;-76
2022/01/16 00:53:22;;;;;;;201.10;86.77;;;;;;;-3.32;100.00;99985.56;2107702;28;20264;-76
2022/01/16 00:54:24;;;;;;;189.27;84.00;;;;;;;-3.36;100.00;99986.13;2106881;28;20300;-76
2022/01/16 00:55:27;;;;;;;196.80;83.97;;;;;;;-3.39;100.00;99978.66;2107171;28;20272;-76
2022/01/16 00:56:29;;;;;;;210.82;85.82;;;;;;;-3.41;100.00;99987.47;2107644;28;20197;-76
2022/01/16 00:57:29;;;;;;;203.82;84.13;;;;;;;-3.45;100.00;99978.41;2107248;28;20209;-76
2022/01/16 00:58:31;;;;;;;201.03;83.80;;;;;;;-3.50;100.00;99967.69;2106898;28;20292;-76
2022/01/16 00:59:32;;;;;;;187.85;79.57;;;;;;;-3.52;100.00;99959.25;2107034;28;20189;-76
2022/01/16 01:00:36;;;;;;;190.43;84.53;;;;;;;-3.59;100.00;99955.75;2107630;28;20185;-76
2022/01/16 01:01:37;;;;;;;195.65;83.13;;;;;;;-3.62;100.00;99937.88;2106783;28;20592;-76
2022/01/16 01:02:41;;;;;;;185.50;82.15;;;;;;;-3.63;100.00;99945.88;2098924;28;20651;-74
2022/01/16 01:03:42;;;;;;;182.07;79.57;;;;;;;-3.68;100.00;99956.84;2098875;28;20225;-74
2022/01/16 01:04:46;;;;;;;181.73;75.10;;;;;;;-3.72;100.00;99966.03;2106967;28;20185;-75
2022/01/16 01:05:47;;;;;;;198.65;82.05;;;;;;;-3.77;100.00;99970.97;2107412;28;20262;-74
2022/01/16 01:06:51;;;;;;;193.07;79.80;;;;;;;-3.82;100.00;99970.69;2106359;28;20279;-74
2022/01/16 01:07:55;;;;;;;190.45;78.68;;;;;;;-3.85;100.00;99973.66;2106959;28;20318;-74
2022/01/16 01:09:00;;;;;;;199.25;81.43;;;;;;;-3.90;100.00;99966.38;2106743;28;20198;-74
2022/01/16 01:10:03;;;;;;;205.65;84.70;;;;;;;-3.95;100.00;99971.31;2106933;28;20216;-74
2022/01/16 01:11:10;;;;;;;213.32;83.45;;;;;;;-3.96;100.00;99982.72;2106779;28;20603;-74
2022/01/16 01:12:23;;;;;;;206.82;83.05;;;;;;;-4.01;100.00;99975.44;2099310;28;20241;-74
2022/01/16 01:13:32;;;;;;;213.23;82.03;;;;;;;-4.08;100.00;99961.53;2100068;28;20635;-74
2022/01/16 01:14:40;;;;;;;202.20;81.57;;;;;;;-4.06;100.00;99943.09;2099453;28;20199;-74
2022/01/16 01:15:46;;;;;;;197.05;81.45;;;;;;;-4.11;100.00;99920.19;2107172;28;20257;-74
2022/01/16 01:16:51;;;;;;;197.45;83.07;;;;;;;-4.13;100.00;99924.75;2106558;28;20198;-74
2022/01/16 01:17:54;;;;;;;198.10;81.75;;;;;;;-4.16;100.00;99932.16;2107127;28;20181;-74
2022/01/16 01:18:55;;;;;;;216.32;85.03;;;;;;;-4.17;100.00;99965.22;2107459;28;20194;-75
2022/01/16 01:19:56;;;;;;;188.73;82.10;;;;;;;-4.19;100.00;99958.53;2107473;28;20193;-75
2022/01/16 01:20:59;;;;;;;206.17;84.00;;;;;;;-4.24;100.00;99948.66;2107022;28;20669;-75
2022/01/16 01:22:00;;;;;;;203.93;85.60;;;;;;;-4.23;100.00;99944.25;2107386;28;20665;-75
2022/01/16 01:23:03;;;;;;;230.60;88.68;;;;;;;-4.25;100.00;99926.22;2106738;28;20194;-75
2022/01/16 01:24:06;;;;;;;207.73;84.10;;;;;;;-4.28;100.00;99923.94;2106853;28;20201;-75
2022/01/16 01:25:12;;;;;;;221.30;86.25;;;;;;;-4.29;100.00;99930.94;2107380;28;20190;-75
2022/01/16 01:26:12;;;;;;;216.85;87.47;;;;;;;-4.31;100.00;99948.56;2107578;28;20201;-75
2022/01/16 01:27:21;;;;;;;208.40;88.50;;;;;;;-4.34;100.00;99942.91;2107417;28;20200;-75
2022/01/16 01:28:22;;;;;;;223.93;90.00;;;;;;;-4.35;100.00;99936.84;2106734;28;20196;-75
2022/01/16 01:29:27;;;;;;;218.07;87.88;;;;;;;-4.35;100.00;99926.44;2106741;28;20288;-76
2022/01/16 01:30:29;;;;;;;220.90;91.18;;;;;;;-4.32;100.00;99938.31;2106678;28;20232;-75
2022/01/16 01:31:30;;;;;;;213.93;89.60;;;;;;;-4.34;100.00;99956.75;2106823;28;20217;-75
2022/01/16 01:32:33;;;;;;;219.65;91.72;;;;;;;-4.33;100.00;99940.13;2106663;28;20219;-75
2022/01/16 01:33:34;;;;;;;244.40;93.97;;;;;;;-4.31;100.00;99908.69;2098578;28;20202;-75
2022/01/16 01:34:37;;;;;;;237.13;93.90;;;;;;;-4.29;100.00;99850.19;2106766;28;20186;-75
2022/01/16 01:35:39;;;;;;;232.88;92.57;;;;;;;-4.30;100.00;99808.72;2107357;28;20185;-75
2022/01/16 01:36:41;;;;;;;243.63;95.43;;;;;;;-4.26;100.00;99802.13;2105856;28;20229;-75
2022/01/16 01:37:42;;;;;;;229.65;94.85;;;;;;;-4.34;100.00;99799.66;2098828;28;20285;-75
2022/01/16 01:38:44;;;;;;;235.27;94.63;;;;;;;-4.29;100.00;99815.53;2106783;28;20621;-75
2022/01/16 01:39:46;;;;;;;226.50;92.60;;;;;;;-4.30;100.00;99824.34;2106647;28;20198;-75
2022/01/16 01:40:49;;;;;;;229.77;93.90;;;;;;;-4.30;100.00;99813.91;2106817;28;20188;-75
2022/01/16 01:41:54;;;;;;;223.85;93.20;;;;;;;-4.32;100.00;99819.31;2107268;28;20197;-75
2022/01/16 01:51:00;;;;;;;218.88;90.47;;;;;;;-4.32;100.00;99811.50;2107419;28;20655;-75
2022/01/16 01:51:12;;;;;;;183.75;81.40;;;;;;;-4.51;100.00;99821.66;2106523;28;20173;-75
2022/01/16 01:52:13;;;;;;;187.40;81.47;;;;;;;-4.52;100.00;99833.03;2106555;28;20212;-75
2022/01/16 01:53:16;;;;;;;205.90;86.85;;;;;;;-4.56;100.00;99841.22;2106679;28;20189;-75
2022/01/16 01:54:17;;;;;;;215.77;84.50;;;;;;;-4.58;100.00;99858.00;2106512;28;20664;-75
2022/01/16 01:55:20;;;;;;;211.03;83.23;;;;;;;-4.53;100.00;99863.47;2098098;28;20627;-75
2022/01/16 01:56:23;;;;;;;197.52;86.72;;;;;;;-4.51;100.00;99842.50;2098185;28;20197;-75
2022/01/16 01:57:27;;;;;;;198.52;84.68;;;;;;;-4.53;100.00;99831.41;2106617;28;20644;-75
2022/01/16 01:58:28;;;;;;;208.90;82.85;;;;;;;-4.56;100.00;99841.22;2107194;28;20217;-75
2022/01/16 01:59:30;;;;;;;201.07;79.47;;;;;;;-4.63;100.00;99831.69;2106443;28;20209;-75
2022/01/16 02:00:30;;;;;;;206.82;84.30;;;;;;;-4.64;100.00;99850.91;2106525;28;20197;-75
2022/01/16 02:01:33;;;;;;;191.13;79.90;;;;;;;-4.68;100.00;99850.47;2106452;28;20312;-75
2022/01/16 02:02:43;;;;;;;205.25;84.35;;;;;;;-4.69;100.00;99840.19;2106717;28;20200;-75
2022/01/16 02:03:48;;;;;;;200.10;79.18;;;;;;;-4.71;100.00;99845.59;2106703;28;20202;-75
2022/01/16 02:04:50;;;;;;;182.27;78.10;;;;;;;-4.73;100.00;99855.38;2106739;28;20209;-76
2022/01/16 02:05:51;;;;;;;191.07;79.50;;;;;;;-4.73;100.00;99851.97;2106396;28;20194;-75
2022/01/16 02:06:53;;;;;;;191.27;81.90;;;;;;;-4.71;100.00;99843.00;2097665;28;20303;-75
2022/01/16 02:07:54;;;;;;;181.02;78.95;;;;;;;-4.72;100.00;99830.16;2098010;28;20198;-75
2022/01/16 02:08:58;;;;;;;181.80;77.00;;;;;;;-4.70;100.00;99810.75;2098245;28;20213;-75
2022/01/16 02:09:59;;;;;;;181.00;79.22;;;;;;;-4.67;100.00;99807.81;2106382;28;20198;-75
2022/01/16 02:11:04;;;;;;;187.43;76.90;;;;;;;-4.66;100.00;99814.63;2097856;28;20233;-75
2022/01/16 02:12:11;;;;;;;177.55;79.45;;;;;;;-4.66;100.00;99821.66;2106366;28;20704;-75
2022/01/16 02:13:21;;;;;;;191.07;79.90;;;;;;;-4.68;100.00;99841.84;2106413;28;20193;-75
2022/01/16 02:14:29;;;;;;;190.38;81.50;;;;;;;-4.72;100.00;99848.38;2106798;28;20170;-75
2022/01/16 02:28:07;;;;;;;209.27;84.85;;;;;;;-4.81;100.00;99858.06;2080910;28;20180;-75
2022/01/16 02:29:36;;;;;;;184.77;79.28;;;;;;;-4.81;100.00;99871.06;2081187;28;20195;-75
2022/01/16 02:32:02;;;;;;;185.80;78.20;;;;;;;-4.87;100.00;99871.75;2083097;28;20180;-75
2022/01/16 02:34:33;;;;;;;189.43;76.40;;;;;;;-4.90;100.00;99872.94;2106652;28;20180;-75
2022/01/16 02:35:35;;;;;;;190.55;76.15;;;;;;;-4.92;100.00;99879.31;2107207;28;20181;-75
2022/01/16 02:36:43;;;;;;;183.10;77.70;;;;;;;-4.95;100.00;99875.28;2106532;28;20225;-75
2022/01/16 02:37:46;;;;;;;173.07;77.97;;;;;;;-4.97;100.00;99876.41;2107115;28;20174;-75
2022/01/16 02:38:48;;;;;;;203.75;85.40;;;;;;;-5.00;100.00;99861.97;2106845;28;20194;-75
2022/01/16 02:39:53;;;;;;;211.52;88.63;;;;;;;-5.01;100.00;99872.56;2106228;28;20190;-75
2022/01/16 02:40:58;;;;;;;218.10;92.72;;;;;;;-4.97;100.00;99877.22;2106922;28;20228;-75
2022/01/16 02:42:00;;;;;;;222.38;92.47;;;;;;;-4.92;100.00;99879.31;2106215;28;20285;-75
2022/01/16 02:43:02;;;;;;;226.98;92.60;;;;;;;-4.92;100.00;99872.31;2106303;28;20205;-75
2022/01/16 02:44:15;;;;;;;213.65;90.55;;;;;;;-4.88;100.00;99863.16;2106949;28;20194;-75
2022/01/16 02:45:28;;;;;;;220.40;91.97;;;;;;;-4.81;100.00;99860.66;2105914;28;20198;-75
2022/01/16 02:46:37;;;;;;;249.48;95.25;;;;;;;-4.81;100.00;99847.66;2099368;28;20218;-75
2022/01/16 02:47:39;;;;;;;249.10;96.75;;;;;;;-4.81;100.00;99849.44;2099348;28;20673;-75
2022/01/16 02:48:39;;;;;;;209.70;91.88;;;;;;;-4.79;100.00;99855.28;2106314;28;20189;-75
2022/01/16 02:49:44;;;;;;;219.70;89.97;;;;;;;-4.80;100.00;99849.25;2107053;28;20272;-75
2022/01/16 02:50:45;;;;;;;209.20;87.45;;;;;;;-4.84;100.00;99856.63;2106952;28;20649;-76
2022/01/16 02:51:47;;;;;;;196.50;85.20;;;;;;;-4.87;100.00;99869.97;2105754;28;20231;-77
2022/01/16 02:52:51;;;;;;;210.68;84.25;;;;;;;-4.90;100.00;99865.13;2097812;28;20194;-77
2022/01/16 02:53:55;;;;;;;186.85;81.20;;;;;;;-4.94;100.00;99850.88;2098294;28;20190;-74
2022/01/16 02:55:00;;;;;;;188.43;82.38;;;;;;;-4.98;100.00;99848.78;2106495;28;20190;-74
2022/01/16 02:56:02;;;;;;;168.10;76.40;;;;;;;-5.04;100.00;99846.88;2106229;28;20695;-76
2022/01/16 02:57:05;;;;;;;187.35;79.97;;;;;;;-5.04;100.00;99850.28;2097850;28;20202;-76
2022/01/16 02:58:05;;;;;;;208.32;86.38;;;;;;;-5.06;100.00;99843.63;2106262;28;20200;-74
2022/01/16 02:59:13;;;;;;;185.37;80.17;;;;;;;-5.06;100.00;99860.06;2106145;28;20196;-74
2022/01/16 03:00:16;;;;;;;200.20;76.95;;;;;;;-5.11;100.00;99851.97;2106348;28;20174;-74
2022/01/16 03:01:19;;;;;;;180.38;77.00;;;;;;;-5.10;100.00;99855.38;2106063;28;20213;-74
2022/01/16 03:02:22;;;;;;;189.57;79.15;;;;;;;-5.17;100.00;99863.88;2097889;28;20198;-74
2022/01/16 03:03:25;;;;;;;185.68;77.15;;;;;;;-5.18;100.00;99853.66;2097972;28;20198;-76
2022/01/16 03:04:26;;;;;;;186.73;77.45;;;;;;;-5.18;100.00;99857.06;2106395;28;20196;-75
2022/01/16 03:05:28;;;;;;;188.30;74.03;;;;;;;-5.21;100.00;99860.03;2106871;28;20273;-75
2022/01/16 03:06:29;;;;;;;176.32;74.22;;;;;;;-5.24;100.00;99855.16;2105597;28;20827;-75
2022/01/16 03:07:32;;;;;;;172.70;75.73;;;;;;;-5.27;100.00;99865.91;2106010;28;20288;-75
2022/01/16 03:08:36;;;;;;;185.88;73.97;;;;;;;-5.28;100.00;99871.28;2106829;28;20439;-75
2022/01/16 03:09:55;;;;;;;164.43;72.40;;;;;;;-5.29;100.00;99861.88;2106128;28;20234;-75
2022/01/16 03:11:15;;;;;;;182.55;77.65;;;;;;;-5.32;100.00;99868.22;2100188;28;20244;-75
2022/01/16 03:12:17;;;;;;;193.90;79.25;;;;;;;-5.35;100.00;99855.56;2106340;28;20338;-75
2022/01/16 03:13:22;;;;;;;204.35;85.00;;;;;;;-5.38;100.00;99850.72;2106817;28;20678;-75
2022/01/16 03:14:24;;;;;;;215.48;84.68;;;;;;;-5.38;100.00;99850.72;2106932;28;20257;-75
2022/01/16 03:15:27;;;;;;;212.10;83.25;;;;;;;-5.38;100.00;99848.13;2106116;28;20193;-75
2022/01/16 03:16:32;;;;;;;200.55;87.05;;;;;;;-5.37;100.00;99851.53;2098520;28;20198;-75
2022/01/16 03:17:38;;;;;;;207.52;82.95;;;;;;;-5.38;100.00;99842.13;2097953;28;20190;-75
2022/01/16 03:22:40;;;;;;;206.43;83.53;;;;;;;-5.37;100.00;99854.13;2106895;28;20193;-75
2022/01/16 03:23:43;;;;;;;202.18;81.25;;;;;;;-5.44;100.00;99841.81;2106803;28;20222;-75
2022/01/16 03:24:46;;;;;;;210.95;84.35;;;;;;;-5.58;100.00;99819.16;2106993;28;20214;-75
2022/01/16 03:25:47;;;;;;;224.27;87.25;;;;;;;-5.44;100.00;99841.00;2106677;28;20190;-75
2022/01/16 03:26:49;;;;;;;213.13;82.70;;;;;;;-5.44;100.00;99849.63;2106271;28;20225;-75
2022/01/16 03:27:50;;;;;;;186.05;78.93;;;;;;;-5.44;100.00;99838.41;2097757;28;20444;-75
2022/01/16 03:28:52;;;;;;;195.70;83.72;;;;;;;-5.47;100.00;99842.16;2106274;28;20703;-75
2022/01/16 03:29:57;;;;;;;193.63;83.22;;;;;;;-5.46;100.00;99848.97;2106856;28;20190;-75
2022/01/16 03:30:58;;;;;;;198.88;83.22;;;;;;;-5.46;100.00;99848.19;2105942;28;20209;-75
2022/01/16 03:32:01;;;;;;;203.43;85.47;;;;;;;-5.48;100.00;99844.91;2106160;28;20306;-75
2022/01/16 03:33:02;;;;;;;203.70;84.53;;;;;;;-5.51;100.00;99840.88;2106733;28;20205;-75
2022/01/16 03:34:04;;;;;;;201.37;82.80;;;;;;;-5.50;100.00;99839.09;2106709;28;20268;-75
2022/01/16 03:35:07;;;;;;;219.50;87.40;;;;;;;-5.54;100.00;99836.03;2106721;28;20736;-75
2022/01/16 03:36:09;;;;;;;210.65;84.15;;;;;;;-5.53;100.00;99829.03;2106191;28;20526;-75
2022/01/16 03:37:10;;;;;;;226.73;89.22;;;;;;;-5.54;100.00;99830.03;2106869;28;20257;-75
2022/01/16 03:38:11;;;;;;;213.85;83.50;;;;;;;-5.51;100.00;99837.47;2106738;28;20264;-75
2022/01/16 03:39:14;;;;;;;212.07;89.13;;;;;;;-5.50;100.00;99828.69;2106474;28;20201;-75
2022/01/16 03:40:15;;;;;;;212.50;88.30;;;;;;;-5.51;100.00;99825.28;2099250;28;20198;-75
2022/01/16 03:41:17;;;;;;;212.77;88.60;;;;;;;-5.50;100.00;99826.09;2107843;28;20636;-75
2022/01/16 03:42:25;;;;;;;199.05;84.22;;;;;;;-5.51;100.00;99816.69;2108372;28;21026;-75
2022/01/16 03:43:27;;;;;;;211.45;88.18;;;;;;;-5.49;100.00;99812.09;2107613;28;20663;-75
2022/01/16 03:44:30;;;;;;;202.40;85.15;;;;;;;-5.50;100.00;99813.09;2099178;28;20194;-75
2022/01/16 03:45:31;;;;;;;204.50;86.28;;;;;;;-5.53;100.00;99818.66;2107536;28;20246;-75
2022/01/16 03:46:36;;;;;;;221.87;86.77;;;;;;;-5.50;100.00;99816.50;2108241;28;20255;-75
2022/01/16 03:47:37;;;;;;;205.38;88.10;;;;;;;-5.51;100.00;99824.47;2108154;28;20190;-75
2022/01/16 03:48:39;;;;;;;208.00;84.53;;;;;;;-5.52;100.00;99815.06;2107537;28;20193;-75
2022/01/16 03:49:43;;;;;;;208.63;87.22;;;;;;;-5.52;100.00;99817.66;2107600;28;20221;-75
2022/01/16 03:50:45;;;;;;;222.27;90.10;;;;;;;-5.51;100.00;99816.69;2107470;28;20201;-75
2022/01/16 03:51:49;;;;;;;206.53;86.57;;;;;;;-5.53;100.00;99809.06;2098734;28;20230;-75
2022/01/16 03:52:49;;;;;;;204.82;86.57;;;;;;;-5.50;100.00;99810.50;2107701;28;20197;-75
2022/01/16 03:53:51;;;;;;;192.00;84.77;;;;;;;-5.51;100.00;99803.69;2108393;28;20264;-75
2022/01/16 03:54:54;;;;;;;197.40;84.45;;;;;;;-5.50;100.00;99794.91;2107389;28;20205;-75
2022/01/16 03:55:56;;;;;;;198.30;83.65;;;;;;;-5.49;100.00;99791.31;2107529;28;20598;-75
2022/01/16 03:56:58;;;;;;;175.27;75.88;;;;;;;-5.51;100.00;99790.69;2108097;28;20186;-75
2022/01/16 03:58:00;;;;;;;199.05;77.68;;;;;;;-5.51;100.00;99786.28;2107475;28;20197;-75
2022/01/16 03:59:03;;;;;;;180.48;77.03;;;;;;;-5.50;100.00;99784.50;2107530;28;20193;-75
2022/01/16 04:00:06;;;;;;;192.73;81.55;;;;;;;-5.48;100.00;99788.53;2107445;28;20556;-75
2022/01/16 04:01:08;;;;;;;197.40;82.45;;;;;;;-5.46;100.00;99791.78;2107609;28;20186;-75
2022/01/16 04:02:09;;;;;;;188.88;81.53;;;;;;;-5.44;100.00;99779.41;2107424;28;20206;-75
2022/01/16 04:03:11;;;;;;;414.33;101.68;;;;;;;-5.41;100.00;99776.47;2107513;28;20177;-75
2022/01/16 04:04:13;;;;;;;294.52;96.30;;;;;;;-5.38;100.00;99783.13;2107302;28;20205;-75
2022/01/16 04:05:16;;;;;;;334.48;94.88;;;;;;;-5.37;100.00;99779.53;2107695;28;20580;-75
2022/01/16 04:06:18;;;;;;;244.43;90.35;;;;;;;-5.35;100.00;99781.94;2106809;28;20221;-75
2022/01/16 04:07:26;;;;;;;235.50;92.55;;;;;;;-5.34;100.00;99773.97;2107344;28;20562;-75
2022/01/16 04:08:27;;;;;;;202.10;87.95;;;;;;;-5.36;100.00;99781.16;2099960;28;20203;-75
2022/01/16 04:09:31;;;;;;;204.97;86.03;;;;;;;-5.38;100.00;99780.53;2107673;28;20732;-75
2022/01/16 04:10:33;;;;;;;210.75;87.80;;;;;;;-5.46;100.00;99781.38;2108031;28;20197;-75
2022/01/16 04:11:35;;;;;;;202.57;86.07;;;;;;;-5.41;100.00;99788.66;2107333;28;20198;-75
2022/01/16 04:12:39;;;;;;;205.75;85.25;;;;;;;-5.45;100.00;99784.78;2107314;28;20280;-75
2022/01/16 04:13:48;;;;;;;196.85;82.80;;;;;;;-5.49;100.00;99786.09;2107449;28;20186;-75
2022/01/16 04:16:09;;;;;;;181.52;81.10;;;;;;;-5.53;100.00;99782.25;2107732;28;20181;-75
2022/01/16 04:17:12;;;;;;;189.00;79.13;;;;;;;-5.59;100.00;99781.16;2107346;28;20198;-75
2022/01/16 04:18:15;;;;;;;189.50;78.78;;;;;;;-5.58;100.00;99781.97;2107452;28;20268;-75
2022/01/16 04:19:21;;;;;;;186.02;80.95;;;;;;;-5.62;100.00;99778.91;2107225;28;20197;-75
2022/01/16 04:20:22;;;;;;;192.05;79.63;;;;;;;-5.64;100.00;99773.09;2107465;28;20201;-75
2022/01/16 04:21:26;;;;;;;183.18;81.70;;;;;;;-5.66;100.00;99780.22;2107558;28;20703;-75
2022/01/16 04:22:27;;;;;;;181.88;77.38;;;;;;;-5.65;100.00;99781.84;2107276;28;20663;-75
2022/01/16 04:23:29;;;;;;;171.63;74.28;;;;;;;-5.68;100.00;99787.38;2107379;28;20198;-75
2022/01/16 04:24:37;;;;;;;176.02;74.25;;;;;;;-5.75;100.00;99776.88;2107898;28;20205;-75
2022/01/16 04:25:41;;;;;;;167.50;77.50;;;;;;;-5.75;100.00;99782.06;2108086;28;20224;-75
2022/01/16 04:26:41;;;;;;;162.55;71.18;;;;;;;-5.78;100.00;99786.81;2107198;28;20247;-75
2022/01/16 04:27:43;;;;;;;181.17;72.40;;;;;;;-5.78;100.00;99782.41;2098881;28;20202;-75
2022/01/16 04:28:46;;;;;;;177.75;75.55;;;;;;;-5.80;100.00;99788.78;2107313;28;20260;-75
2022/01/16 04:29:48;;;;;;;165.75;73.05;;;;;;;-5.82;100.00;99778.56;2107925;28;20250;-75
2022/01/16 04:30:49;;;;;;;177.27;74.03;;;;;;;-5.85;100.00;99781.50;2107902;28;20194;-75
2022/01/16 04:31:50;;;;;;;173.88;75.97;;;;;;;-5.82;100.00;99782.94;2107956;28;20193;-75
2022/01/16 04:32:52;;;;;;;175.67;76.83;;;;;;;-5.85;100.00;99771.09;2107209;28;20292;-75
2022/01/16 04:33:53;;;;;;;176.38;75.72;;;;;;;-5.86;100.00;99772.06;2107255;28;20558;-75
2022/01/16 04:34:54;;;;;;;204.87;83.33;;;;;;;-5.87;100.00;99775.66;2107930;28;20211;-75
2022/01/16 04:35:57;;;;;;;183.65;78.95;;;;;;;-5.80;100.00;99768.00;2107364;28;20190;-75
2022/01/16 04:36:59;;;;;;;228.40;86.20;;;;;;;-5.77;100.00;99768.44;2107474;28;20193;-75
2022/01/16 04:38:00;;;;;;;226.82;89.82;;;;;;;-5.72;100.00;99776.53;2107128;28;20205;-75
2022/01/16 04:39:04;;;;;;;223.43;88.90;;;;;;;-5.71;100.00;99772.97;2098697;28;20201;-75
2022/01/16 04:40:07;;;;;;;236.15;90.68;;;;;;;-5.54;100.00;99778.84;2107200;28;20722;-75
2022/01/16 04:43:54;;;;;;;223.32;86.90;;;;;;;-5.55;100.00;99760.84;2107166;28;20192;-75
2022/01/16 04:44:55;;;;;;;306.88;91.45;;;;;;;-5.55;100.00;99771.22;2099076;28;20251;-75
2022/01/16 04:45:58;;;;;;;289.37;91.50;;;;;;;-5.53;100.00;99771.84;2107173;28;20231;-75
2022/01/16 04:46:59;;;;;;;254.50;90.57;;;;;;;-5.58;100.00;99764.56;2106916;28;20216;-75
2022/01/16 04:48:01;;;;;;;235.07;88.80;;;;;;;-5.60;100.00;99774.34;2107249;28;20727;-75
2022/01/16 04:49:03;;;;;;;211.77;87.13;;;;;;;-5.62;100.00;99765.09;2107355;28;20194;-75
2022/01/16 04:50:08;;;;;;;208.30;82.80;;;;;;;-5.65;100.00;99766.25;2098732;28;20198;-75
2022/01/16 04:51:10;;;;;;;219.75;84.90;;;;;;;-5.65;100.00;99776.63;2098230;28;20194;-75
2022/01/16 04:52:11;;;;;;;235.05;88.47;;;;;;;-5.64;100.00;99778.28;2107266;28;20186;-75
2022/01/16 04:53:13;;;;;;;247.73;89.93;;;;;;;-5.66;100.00;99779.41;2107015;28;20224;-75
2022/01/16 04:54:14;;;;;;;247.50;90.20;;;;;;;-5.67;100.00;99778.59;2107306;28;20196;-75
2022/01/16 04:55:17;;;;;;;237.67;90.23;;;;;;;-5.65;100.00;99781.03;2107668;28;20224;-75
2022/01/16 04:56:19;;;;;;;278.95;93.50;;;;;;;-5.70;100.00;99768.56;2107220;28;20198;-75
2022/01/16 04:57:27;;;;;;;261.40;92.28;;;;;;;-5.69;100.00;99771.00;2099548;28;20198;-75
2022/01/16 04:58:28;;;;;;;252.23;95.75;;;;;;;-5.70;100.00;99765.97;2107299;28;20580;-75
2022/01/16 04:59:29;;;;;;;252.88;92.28;;;;;;;-5.72;100.00;99755.75;2107658;28;20538;-75
2022/01/16 05:00:31;;;;;;;234.60;91.70;;;;;;;-5.70;100.00;99758.97;2106864;28;20305;-75
2022/01/16 05:01:32;;;;;;;243.80;92.95;;;;;;;-5.74;100.00;99751.69;2098687;28;20478;-75
2022/01/16 05:02:33;;;;;;;257.75;97.15;;;;;;;-5.72;100.00;99757.53;2106989;28;20190;-75
2022/01/16 05:03:36;;;;;;;252.82;92.90;;;;;;;-5.73;100.00;99754.13;2107657;28;20555;-75
2022/01/16 05:04:37;;;;;;;251.82;93.15;;;;;;;-5.74;100.00;99749.09;2107601;28;20201;-75
2022/01/16 05:05:41;;;;;;;261.80;95.82;;;;;;;-5.73;100.00;99754.13;2106829;28;20194;-75
2022/01/16 05:06:43;;;;;;;271.27;95.53;;;;;;;-5.72;100.00;99755.75;2098326;28;20214;-75
2022/01/16 05:07:44;;;;;;;261.90;99.88;;;;;;;-5.76;100.00;99744.06;2106852;28;20197;-75
2022/01/16 05:08:45;;;;;;;261.40;96.95;;;;;;;-5.75;100.00;99744.88;2107060;28;20586;-75
2022/01/16 05:09:47;;;;;;;291.60;100.07;;;;;;;-5.74;100.00;99744.69;2106871;28;20284;-75
2022/01/16 05:10:53;;;;;;;282.48;96.25;;;;;;;-5.74;100.00;99744.69;2107193;28;20272;-75
2022/01/16 05:11:58;;;;;;;273.55;96.55;;;;;;;-5.71;100.00;99741.78;2106642;28;20717;-75
2022/01/16 05:13:26;;;;;;;283.73;96.20;;;;;;;-5.71;100.00;99740.97;2107130;28;20213;-75
2022/01/16 05:17:06;;;;;;;365.73;92.28;;;;;;;-5.67;100.00;99742.22;2086326;28;20197;-75
2022/01/16 05:18:08;;;;;;;275.05;89.70;;;;;;;-5.63;100.00;99743.50;2106960;28;20253;-75
2022/01/16 05:19:17;;;;;;;274.90;89.70;;;;;;;-5.61;100.00;99743.31;2106747;28;20189;-75